createdAt,value
2022-09-01T00:00:02.636Z,15.86
2022-09-01T00:02:30.103Z,15.62
2022-09-01T00:04:59.077Z,15.56
2022-09-01T00:07:30.040Z,15.55
2022-09-01T00:09:56.798Z,15.67
2022-09-01T00:12:25.624Z,15.57
2022-09-01T00:14:52.399Z,15.52
2022-09-01T00:17:18.846Z,15.57
2022-09-01T00:19:45.307Z,15.54
2022-09-01T00:22:11.920Z,15.64
2022-09-01T00:24:38.546Z,15.59
2022-09-01T00:27:05.064Z,15.48
2022-09-01T00:29:31.527Z,15.45
2022-09-01T00:31:58.190Z,15.52
2022-09-01T00:34:24.822Z,15.37
2022-09-01T00:36:51.766Z,15.17
2022-09-01T00:39:18.344Z,15.48
2022-09-01T00:41:45.317Z,15.45
2022-09-01T00:44:14.771Z,15.48
2022-09-01T00:46:55.477Z,15.40
2022-09-01T00:49:29.761Z,15.28
2022-09-01T00:52:05.033Z,15.10
2022-09-01T00:54:35.583Z,14.91
2022-09-01T00:57:03.566Z,14.80
2022-09-01T00:59:30.717Z,14.72
2022-09-01T01:01:58.108Z,14.73
2022-09-01T01:04:25.602Z,14.72
2022-09-01T01:07:01.596Z,14.72
2022-09-01T01:09:36.511Z,14.96
2022-09-01T01:12:05.261Z,14.97
2022-09-01T01:15:37.868Z,14.88
2022-09-01T01:18:04.576Z,15.02
2022-09-01T01:20:52.174Z,14.77
2022-09-01T01:23:26.242Z,14.83
2022-09-01T01:25:58.542Z,14.79
2022-09-01T01:28:31.199Z,14.74
2022-09-01T01:31:01.327Z,14.72
2022-09-01T01:33:43.036Z,14.65
2022-09-01T01:36:35.808Z,14.78
2022-09-01T01:39:08.517Z,14.71
2022-09-01T01:41:36.290Z,14.58
2022-09-01T01:44:05.228Z,14.56
2022-09-01T01:46:33.704Z,14.46
2022-09-01T01:49:20.098Z,14.34
2022-09-01T01:51:49.048Z,14.39
2022-09-01T01:54:19.730Z,14.48
2022-09-01T01:56:46.138Z,14.31
2022-09-01T01:59:14.950Z,14.42
2022-09-01T02:01:43.019Z,14.39
2022-09-01T02:04:11.113Z,14.38
2022-09-01T02:06:41.299Z,14.37
2022-09-01T02:09:08.011Z,14.48
2022-09-01T02:11:37.904Z,14.44
2022-09-01T02:14:06.701Z,14.29
2022-09-01T02:16:34.429Z,14.17
2022-09-01T02:19:02.296Z,14.29
2022-09-01T02:21:29.258Z,14.30
2022-09-01T02:24:02.363Z,14.22
2022-09-01T02:26:32.279Z,14.33
2022-09-01T02:29:04.716Z,14.20
2022-09-01T02:31:35.343Z,14.22
2022-09-01T02:34:02.452Z,14.23
2022-09-01T02:36:32.886Z,14.24
2022-09-01T02:38:59.453Z,14.02
2022-09-01T02:41:28.961Z,14.12
2022-09-01T02:43:55.670Z,13.99
2022-09-01T02:46:24.555Z,13.96
2022-09-01T02:48:51.518Z,13.91
2022-09-01T02:51:20.911Z,13.90
2022-09-01T02:53:52.170Z,13.81
2022-09-01T02:56:22.765Z,13.84
2022-09-01T02:58:52.249Z,13.82
2022-09-01T03:01:25.250Z,13.74
2022-09-01T03:03:54.989Z,13.88
2022-09-01T03:06:24.584Z,13.77
2022-09-01T03:08:56.569Z,13.77
2022-09-01T03:11:24.444Z,13.80
2022-09-01T03:13:51.355Z,13.74
2022-09-01T03:16:19.083Z,13.77
2022-09-01T03:18:45.637Z,13.80
2022-09-01T03:21:16.133Z,13.81
2022-09-01T03:23:44.856Z,13.83
2022-09-01T03:26:50.292Z,13.85
2022-09-01T03:29:18.202Z,13.84
2022-09-01T03:31:44.925Z,13.83
2022-09-01T03:34:12.369Z,13.94
2022-09-01T03:36:39.984Z,13.97
2022-09-01T03:39:14.590Z,14.02
2022-09-01T03:41:43.621Z,13.86
2022-09-01T03:44:14.157Z,13.89
2022-09-01T03:46:40.631Z,13.86
2022-09-01T03:49:08.045Z,13.85
2022-09-01T03:51:35.113Z,13.94
2022-09-01T03:54:01.562Z,13.95
2022-09-01T03:57:00.729Z,14.04
2022-09-01T03:59:29.942Z,13.98
2022-09-01T04:01:57.484Z,13.92
2022-09-01T04:04:24.606Z,13.89
2022-09-01T04:06:51.033Z,13.79
2022-09-01T04:09:17.593Z,13.84
2022-09-01T04:11:46.863Z,13.78
2022-09-01T04:14:13.479Z,13.88
2022-09-01T04:16:58.649Z,13.64
2022-09-01T04:19:26.436Z,13.50
2022-09-01T04:21:59.978Z,13.59
2022-09-01T04:24:28.236Z,13.40
2022-09-01T04:26:56.221Z,13.51
2022-09-01T04:29:29.156Z,13.41
2022-09-01T04:35:40.170Z,13.44
2022-09-01T04:38:08.410Z,13.35
2022-09-01T04:40:41.917Z,13.31
2022-09-01T04:43:09.197Z,13.29
2022-09-01T04:49:26.977Z,13.11
2022-09-01T04:51:54.421Z,13.16
2022-09-01T04:58:10.213Z,13.24
2022-09-01T05:04:28.796Z,12.92
2022-09-01T05:06:59.656Z,13.16
2022-09-01T05:09:31.629Z,12.89
2022-09-01T05:12:01.641Z,12.98
2022-09-01T05:14:28.807Z,13.02
2022-09-01T05:16:58.968Z,13.08
2022-09-01T05:23:13.319Z,13.02
2022-09-01T05:25:43.915Z,12.81
2022-09-01T05:28:13.085Z,13.00
2022-09-01T05:30:40.978Z,12.98
2022-09-01T05:33:12.441Z,12.98
2022-09-01T05:35:43.494Z,13.08
2022-09-01T05:38:15.584Z,13.06
2022-09-01T05:40:43.746Z,12.99
2022-09-01T05:43:12.512Z,13.05
2022-09-01T05:46:03.337Z,13.01
2022-09-01T05:48:31.585Z,13.00
2022-09-01T05:50:59.861Z,13.13
2022-09-01T05:53:31.105Z,12.96
2022-09-01T05:55:58.427Z,12.93
2022-09-01T05:58:26.840Z,13.11
2022-09-01T06:00:55.749Z,13.14
2022-09-01T06:03:22.983Z,13.27
2022-09-01T06:09:41.534Z,13.52
2022-09-01T06:12:17.527Z,13.60
2022-09-01T06:14:45.342Z,13.75
2022-09-01T06:17:11.892Z,13.81
2022-09-01T06:19:39.993Z,13.76
2022-09-01T06:22:06.470Z,13.92
2022-09-01T06:24:33.539Z,14.13
2022-09-01T06:26:59.988Z,14.17
2022-09-01T06:29:26.412Z,14.20
2022-09-01T06:31:52.955Z,14.20
2022-09-01T06:34:19.672Z,14.27
2022-09-01T06:36:48.503Z,14.37
2022-09-01T06:39:20.007Z,14.58
2022-09-01T06:41:52.747Z,14.63
2022-09-01T06:44:22.980Z,14.82
2022-09-01T06:46:53.117Z,14.96
2022-09-01T06:49:21.529Z,15.10
2022-09-01T06:51:49.671Z,15.22
2022-09-01T06:54:19.058Z,15.27
2022-09-01T06:56:51.482Z,15.30
2022-09-01T06:59:19.965Z,15.42
2022-09-01T07:01:48.940Z,15.54
2022-09-01T07:04:21.423Z,15.74
2022-09-01T07:07:00.139Z,15.84
2022-09-01T07:09:38.605Z,15.93
2022-09-01T07:12:27.742Z,16.01
2022-09-01T07:17:42.564Z,16.27
2022-09-01T07:20:26.811Z,16.34
2022-09-01T07:23:10.486Z,16.56
2022-09-01T07:26:01.069Z,16.60
2022-09-01T07:28:36.179Z,16.65
2022-09-01T07:33:55.789Z,16.94
2022-09-01T07:45:28.358Z,17.40
2022-09-01T07:47:55.904Z,17.54
2022-09-01T07:50:39.903Z,17.67
2022-09-01T07:53:12.470Z,17.92
2022-09-01T07:55:44.123Z,17.95
2022-09-01T07:58:11.860Z,18.03
2022-09-01T08:00:46.071Z,18.12
2022-09-01T08:03:13.967Z,18.23
2022-09-01T08:05:40.978Z,18.37
2022-09-01T08:08:18.563Z,18.47
2022-09-01T08:10:49.167Z,18.65
2022-09-01T08:13:16.760Z,18.71
2022-09-01T08:18:48.200Z,18.93
2022-09-01T08:21:15.536Z,19.07
2022-09-01T08:23:42.266Z,19.18
2022-09-01T08:26:11.939Z,19.34
2022-09-01T08:28:39.624Z,19.35
2022-09-01T08:31:11.197Z,19.48
2022-09-01T08:33:39.424Z,19.47
2022-09-01T08:36:08.070Z,19.64
2022-09-01T08:38:34.731Z,19.68
2022-09-01T08:41:03.278Z,19.85
2022-09-01T08:43:58.274Z,19.85
2022-09-01T08:46:28.426Z,20.07
2022-09-01T08:52:08.847Z,20.29
2022-09-01T08:54:49.765Z,20.21
2022-09-01T08:57:20.607Z,20.29
2022-09-01T08:59:47.591Z,20.34
2022-09-01T09:02:25.289Z,20.45
2022-09-01T09:05:02.038Z,20.54
2022-09-01T09:08:07.262Z,20.75
2022-09-01T09:10:49.219Z,20.99
2022-09-01T09:13:39.794Z,20.82
2022-09-01T09:16:17.692Z,21.04
2022-09-01T09:19:00.623Z,21.18
2022-09-01T09:21:33.222Z,21.15
2022-09-01T09:24:10.553Z,21.19
2022-09-01T09:26:44.800Z,21.12
2022-09-01T09:29:11.578Z,21.20
2022-09-01T09:32:22.419Z,21.44
2022-09-01T09:34:50.489Z,21.41
2022-09-01T09:37:24.730Z,21.66
2022-09-01T09:40:12.051Z,21.77
2022-09-01T09:42:40.580Z,21.73
2022-09-01T09:45:21.583Z,21.86
2022-09-01T09:47:48.495Z,22.15
2022-09-01T09:50:22.913Z,22.23
2022-09-01T09:52:51.124Z,22.34
2022-09-01T09:55:26.793Z,22.17
2022-09-01T09:57:56.613Z,22.30
2022-09-01T10:00:29.435Z,22.47
2022-09-01T10:03:12.404Z,22.55
2022-09-01T10:05:44.136Z,22.75
2022-09-01T10:08:15.718Z,22.92
2022-09-01T10:10:44.118Z,23.10
2022-09-01T10:13:16.598Z,23.18
2022-09-01T10:15:51.245Z,23.52
2022-09-01T10:18:29.382Z,23.77
2022-09-01T10:21:08.150Z,24.05
2022-09-01T10:23:37.656Z,23.94
2022-09-01T10:26:14.241Z,24.16
2022-09-01T10:28:52.926Z,23.93
2022-09-01T10:31:20.431Z,24.48
2022-09-01T10:33:47.765Z,23.82
2022-09-01T10:36:15.444Z,23.96
2022-09-01T10:38:46.867Z,23.78
2022-09-01T10:41:48.169Z,24.43
2022-09-01T10:44:21.095Z,24.73
2022-09-01T10:47:28.111Z,24.36
2022-09-01T10:49:55.985Z,24.79
2022-09-01T10:52:58.869Z,24.90
2022-09-01T10:55:32.868Z,24.47
2022-09-01T10:59:29.850Z,25.01
2022-09-01T11:03:51.553Z,26.01
2022-09-01T11:09:48.649Z,25.25
2022-09-01T11:12:15.137Z,24.98
2022-09-01T11:14:52.153Z,25.33
2022-09-01T11:17:27.726Z,25.65
2022-09-01T11:20:02.106Z,26.04
2022-09-01T11:22:32.580Z,25.95
2022-09-01T11:25:12.826Z,25.42
2022-09-01T11:27:48.610Z,25.44
2022-09-01T11:30:21.033Z,26.31
2022-09-01T11:32:50.782Z,26.35
2022-09-01T11:35:21.636Z,26.38
2022-09-01T11:37:49.926Z,26.16
2022-09-01T11:40:29.745Z,26.88
2022-09-01T11:43:04.457Z,27.34
2022-09-01T11:45:32.984Z,27.66
2022-09-01T11:48:08.172Z,27.97
2022-09-01T11:50:37.873Z,27.86
2022-09-01T11:53:08.027Z,28.66
2022-09-01T11:55:34.454Z,27.93
2022-09-01T11:58:01.886Z,27.82
2022-09-01T12:00:33.974Z,28.39
2022-09-01T12:03:00.646Z,28.23
2022-09-01T12:05:34.117Z,28.30
2022-09-01T12:08:03.552Z,28.11
2022-09-01T12:10:36.521Z,28.77
2022-09-01T12:13:22.611Z,27.75
2022-09-01T12:16:16.471Z,27.59
2022-09-01T12:18:51.354Z,28.47
2022-09-01T12:21:22.913Z,28.33
2022-09-01T12:23:49.384Z,29.04
2022-09-01T12:26:19.714Z,29.37
2022-09-01T12:28:49.602Z,29.90
2022-09-01T12:31:27.312Z,29.11
2022-09-01T12:33:56.422Z,29.50
2022-09-01T12:36:26.808Z,30.25
2022-09-01T12:38:55.338Z,30.14
2022-09-01T12:41:31.246Z,30.11
2022-09-01T12:43:57.699Z,30.34
2022-09-01T12:46:41.416Z,29.54
2022-09-01T12:49:19.652Z,30.83
2022-09-01T12:51:48.466Z,29.92
2022-09-01T12:54:15.321Z,30.87
2022-09-01T12:56:48.409Z,31.18
2022-09-01T12:59:36.055Z,31.20
2022-09-01T13:02:26.629Z,31.44
2022-09-01T13:04:53.136Z,30.89
2022-09-01T13:07:19.583Z,31.23
2022-09-01T13:09:46.138Z,30.52
2022-09-01T13:12:21.092Z,31.02
2022-09-01T13:14:47.810Z,31.46
2022-09-01T13:17:14.907Z,30.87
2022-09-01T13:19:41.695Z,32.21
2022-09-01T13:22:08.195Z,32.49
2022-09-01T13:24:34.657Z,32.38
2022-09-01T13:29:48.474Z,32.35
2022-09-01T13:32:33.081Z,32.05
2022-09-01T13:34:59.702Z,32.50
2022-09-01T13:37:26.174Z,32.57
2022-09-01T13:39:52.703Z,32.54
2022-09-01T13:42:19.227Z,32.76
2022-09-01T13:44:49.793Z,32.81
2022-09-01T13:47:34.257Z,32.83
2022-09-01T13:54:00.357Z,34.10
2022-09-01T13:56:26.807Z,33.67
2022-09-01T13:58:53.316Z,34.33
2022-09-01T14:01:19.861Z,34.10
2022-09-01T14:03:50.074Z,34.39
2022-09-01T14:06:18.489Z,34.40
2022-09-01T14:08:44.989Z,33.63
2022-09-01T14:11:20.029Z,33.64
2022-09-01T14:13:47.091Z,33.81
2022-09-01T14:16:14.910Z,34.61
2022-09-01T14:18:42.830Z,33.53
2022-09-01T14:21:14.669Z,33.71
2022-09-01T14:23:46.125Z,32.61
2022-09-01T14:26:15.084Z,32.44
2022-09-01T14:28:45.656Z,33.40
2022-09-01T14:31:13.628Z,33.29
2022-09-01T14:33:40.796Z,33.61
2022-09-01T14:36:13.203Z,33.71
2022-09-01T14:38:41.396Z,32.52
2022-09-01T14:41:07.847Z,33.67
2022-09-01T14:43:34.293Z,33.94
2022-09-01T14:46:10.114Z,33.66
2022-09-01T14:48:38.399Z,32.29
2022-09-01T14:51:05.886Z,30.86
2022-09-01T14:53:32.718Z,30.02
2022-09-01T14:56:00.339Z,29.57
2022-09-01T14:58:28.456Z,28.92
2022-09-01T15:01:00.465Z,29.34
2022-09-01T15:07:10.632Z,30.53
2022-09-01T15:09:37.699Z,30.92
2022-09-01T15:12:04.513Z,32.25
2022-09-01T15:14:32.955Z,32.44
2022-09-01T15:16:59.413Z,32.26
2022-09-01T15:19:25.975Z,31.17
2022-09-01T15:21:52.645Z,30.74
2022-09-01T15:24:19.300Z,29.54
2022-09-01T15:26:47.307Z,28.80
2022-09-01T15:29:15.185Z,28.47
2022-09-01T15:31:43.277Z,28.32
2022-09-01T15:34:10.752Z,28.06
2022-09-01T15:36:42.295Z,28.33
2022-09-01T15:39:09.195Z,28.65
2022-09-01T15:41:36.644Z,28.37
2022-09-01T15:44:07.323Z,28.10
2022-09-01T15:46:35.028Z,29.02
2022-09-01T15:49:03.715Z,29.40
2022-09-01T15:51:42.476Z,30.46
2022-09-01T15:54:15.291Z,31.04
2022-09-01T15:56:42.925Z,31.59
2022-09-01T15:59:10.630Z,30.70
2022-09-01T16:01:39.717Z,29.87
2022-09-01T16:04:08.211Z,29.16
2022-09-01T16:06:35.239Z,28.45
2022-09-01T16:09:02.246Z,28.48
2022-09-01T16:11:28.841Z,28.52
2022-09-01T16:13:57.008Z,27.73
2022-09-01T16:16:40.518Z,28.29
2022-09-01T16:19:33.123Z,28.40
2022-09-01T16:22:08.523Z,28.66
2022-09-01T16:24:42.547Z,29.13
2022-09-01T16:27:14.188Z,28.78
2022-09-01T16:29:45.572Z,28.30
2022-09-01T16:32:12.516Z,27.97
2022-09-01T16:34:46.644Z,27.69
2022-09-01T16:37:22.190Z,27.06
2022-09-01T16:39:51.790Z,26.81
2022-09-01T16:42:38.344Z,26.63
2022-09-01T16:45:18.458Z,26.82
2022-09-01T16:47:59.021Z,26.97
2022-09-01T16:54:38.759Z,28.29
2022-09-01T16:57:20.457Z,28.22
2022-09-01T16:59:55.643Z,28.84
2022-09-01T17:02:44.054Z,29.00
2022-09-01T17:05:23.985Z,28.22
2022-09-01T17:07:54.585Z,27.00
2022-09-01T17:10:30.248Z,26.60
2022-09-01T17:12:57.770Z,26.21
2022-09-01T17:15:39.368Z,25.92
2022-09-01T17:18:22.244Z,25.54
2022-09-01T17:20:54.964Z,25.29
2022-09-01T17:23:30.302Z,25.26
2022-09-01T17:26:01.608Z,24.95
2022-09-01T17:28:39.153Z,24.65
2022-09-01T17:31:10.337Z,24.45
2022-09-01T17:33:48.444Z,24.52
2022-09-01T17:36:18.682Z,24.50
2022-09-01T17:39:01.055Z,24.40
2022-09-01T17:41:52.780Z,24.31
2022-09-01T17:44:22.185Z,24.08
2022-09-01T17:47:20.382Z,23.72
2022-09-01T17:50:02.818Z,23.61
2022-09-01T17:52:52.380Z,23.43
2022-09-01T17:55:57.007Z,23.40
2022-09-01T17:58:49.123Z,23.35
2022-09-01T18:01:28.183Z,23.26
2022-09-01T18:04:39.567Z,23.24
2022-09-01T18:07:36.387Z,23.02
2022-09-01T18:10:06.224Z,23.05
2022-09-01T18:12:38.077Z,23.22
2022-09-01T18:15:10.374Z,22.94
2022-09-01T18:20:26.661Z,22.71
2022-09-01T18:23:19.271Z,22.74
2022-09-01T18:25:57.530Z,22.54
2022-09-01T18:28:24.023Z,22.54
2022-09-01T18:30:56.610Z,22.42
2022-09-01T18:33:27.942Z,22.40
2022-09-01T18:36:06.399Z,22.20
2022-09-01T18:38:40.409Z,22.12
2022-09-01T18:41:42.638Z,22.04
2022-09-01T18:44:27.593Z,21.88
2022-09-01T18:47:08.197Z,21.81
2022-09-01T18:49:50.303Z,21.77
2022-09-01T18:52:48.475Z,21.76
2022-09-01T18:55:26.172Z,21.71
2022-09-01T18:57:55.499Z,21.66
2022-09-01T19:00:30.549Z,21.78
2022-09-01T19:03:04.564Z,21.70
2022-09-01T19:05:43.346Z,21.70
2022-09-01T19:08:36.950Z,21.64
2022-09-01T19:11:13.519Z,21.47
2022-09-01T19:14:13.338Z,21.46
2022-09-01T19:16:52.454Z,21.33
2022-09-01T19:19:34.025Z,21.14
2022-09-01T19:22:01.461Z,20.92
2022-09-01T19:25:20.687Z,20.90
2022-09-01T19:28:13.630Z,20.81
2022-09-01T19:31:25.300Z,20.65
2022-09-01T19:33:58.640Z,20.48
2022-09-01T19:36:34.211Z,20.54
2022-09-01T19:39:01.246Z,20.51
2022-09-01T19:41:35.455Z,20.21
2022-09-01T19:44:08.431Z,20.18
2022-09-01T19:46:41.386Z,20.13
2022-09-01T19:49:34.008Z,20.07
2022-09-01T19:52:11.056Z,19.98
2022-09-01T19:54:46.642Z,19.93
2022-09-01T19:57:50.471Z,20.01
2022-09-01T20:00:41.950Z,19.76
2022-09-01T20:03:13.221Z,19.78
2022-09-01T20:05:42.982Z,19.70
2022-09-01T20:08:37.827Z,19.73
2022-09-01T20:11:10.698Z,19.72
2022-09-01T20:13:44.000Z,19.57
2022-09-01T20:16:35.883Z,19.37
2022-09-01T20:19:16.497Z,19.30
2022-09-01T20:21:45.712Z,19.39
2022-09-01T20:24:39.727Z,19.31
2022-09-01T20:27:22.726Z,19.23
2022-09-01T20:30:04.535Z,19.05
2022-09-01T20:32:53.143Z,18.88
2022-09-01T20:35:36.293Z,18.71
2022-09-01T20:38:34.149Z,18.70
2022-09-01T20:41:09.116Z,18.70
2022-09-01T20:43:40.375Z,18.75
2022-09-01T20:46:07.426Z,18.70
2022-09-01T20:48:40.073Z,18.71
2022-09-01T20:51:15.221Z,18.55
2022-09-01T20:54:06.057Z,18.69
2022-09-01T20:56:40.583Z,18.55
2022-09-01T20:59:18.115Z,18.49
2022-09-01T21:02:38.604Z,18.26
2022-09-01T21:05:45.489Z,18.19
2022-09-01T21:08:18.112Z,17.93
2022-09-01T21:10:52.037Z,18.07
2022-09-01T21:13:46.072Z,18.05
2022-09-01T21:16:34.028Z,18.15
2022-09-01T21:19:06.236Z,18.27
2022-09-01T21:21:32.645Z,18.18
2022-09-01T21:23:59.275Z,18.12
2022-09-01T21:26:25.689Z,18.16
2022-09-01T21:28:56.109Z,18.01
2022-09-01T21:31:24.154Z,18.08
2022-09-01T21:33:51.539Z,17.96
2022-09-01T21:36:18.281Z,17.91
2022-09-01T21:38:44.763Z,17.96
2022-09-01T21:41:13.271Z,17.77
2022-09-01T21:43:44.261Z,17.62
2022-09-01T21:46:13.525Z,17.57
2022-09-01T21:48:40.226Z,17.74
2022-09-01T21:51:06.958Z,17.66
2022-09-01T21:53:33.451Z,17.68
2022-09-01T21:56:00.116Z,17.70
2022-09-01T21:58:26.718Z,17.62
2022-09-01T22:00:53.334Z,17.50
2022-09-01T22:03:20.406Z,17.67
2022-09-01T22:05:47.150Z,17.62
2022-09-01T22:08:15.202Z,17.38
2022-09-01T22:10:44.731Z,17.40
2022-09-01T22:13:11.339Z,17.43
2022-09-01T22:15:43.326Z,17.32
2022-09-01T22:18:10.335Z,17.14
2022-09-01T22:20:36.870Z,16.94
2022-09-01T22:23:03.635Z,16.78
2022-09-01T22:25:32.518Z,16.73
2022-09-01T22:28:03.518Z,16.61
2022-09-01T22:30:30.451Z,16.64
2022-09-01T22:32:56.962Z,16.70
2022-09-01T22:35:23.592Z,16.69
2022-09-01T22:37:50.290Z,16.62
2022-09-01T22:40:17.164Z,16.38
2022-09-01T22:42:44.170Z,16.58
2022-09-01T22:45:11.492Z,16.63
2022-09-01T22:47:38.542Z,16.62
2022-09-01T22:50:07.369Z,16.38
2022-09-01T22:52:35.563Z,16.39
2022-09-01T22:55:03.296Z,16.32
2022-09-01T22:57:29.927Z,16.38
2022-09-01T22:59:56.653Z,16.37
2022-09-01T23:02:23.436Z,16.37
2022-09-01T23:04:50.382Z,16.21
2022-09-01T23:07:17.320Z,16.19
2022-09-01T23:09:43.973Z,16.17
2022-09-01T23:12:10.611Z,16.13
2022-09-01T23:14:40.318Z,16.01
2022-09-01T23:17:06.763Z,16.01
2022-09-01T23:19:33.393Z,15.97
2022-09-01T23:22:00.053Z,15.99
2022-09-01T23:24:26.573Z,15.91
2022-09-01T23:26:53.486Z,15.82
2022-09-01T23:29:20.066Z,15.75
2022-09-01T23:31:46.765Z,15.76
2022-09-01T23:34:41.180Z,15.85
2022-09-01T23:37:08.063Z,15.71
2022-09-01T23:39:34.489Z,15.84
2022-09-01T23:42:01.145Z,15.80
2022-09-01T23:44:27.597Z,15.81
2022-09-01T23:46:54.237Z,15.65
2022-09-01T23:49:20.764Z,15.56
2022-09-01T23:51:47.493Z,15.81
2022-09-01T23:54:14.946Z,15.60
2022-09-01T23:56:41.413Z,15.61
2022-09-01T23:59:08.069Z,15.51
